Time;durP1;ratioP1;P1;durP2;ratioP2;P2;SDS_P1;SDS_P2;PMS_P1;PMS_P2;Temp;Humidity;BMP_temperature;BMP_pressure;BME280_temperature;BME280_humidity;BME280_pressure;Samples;Min_cycle;Max_cycle;Signal;HPM_P1;HPM_P2
2021/08/25 00:08:42;;;;;;;9.70;3.70;;;;;;;;;;20901068;28;20057;-65
2021/08/25 00:18:45;;;;;;;9.23;3.70;;;;;;;;;;20919801;28;20045;-64
2021/08/25 00:28:47;;;;;;;8.43;3.70;;;;;;;;;;20928424;28;20088;-66
2021/08/25 00:38:49;;;;;;;11.02;3.58;;;;;;;;;;20927207;28;20056;-66
2021/08/25 00:48:52;;;;;;;9.43;3.38;;;;;;;;;;20926989;28;20053;-65
2021/08/25 00:58:54;;;;;;;7.50;3.80;;;;;;;;;;20908889;28;20056;-65
2021/08/25 01:08:59;;;;;;;6.95;2.75;;;;;;;;;;20925063;28;20053;-65
2021/08/25 01:19:04;;;;;;;7.63;2.97;;;;;;;;;;20925951;28;20553;-65
2021/08/25 01:29:20;;;;;;;10.27;3.60;;;;;;;;;;20916161;28;20068;-64
2021/08/25 01:39:22;;;;;;;13.10;3.95;;;;;;;;;;20911145;28;20045;-65
2021/08/25 01:49:29;;;;;;;8.73;3.08;;;;;;;;;;20910200;28;20075;-65
2021/08/25 01:59:37;;;;;;;10.55;3.58;;;;;;;;;;20909769;28;20056;-65
2021/08/25 02:09:43;;;;;;;13.90;4.57;;;;;;;;;;20908200;28;20064;-64
2021/08/25 02:19:49;;;;;;;12.82;4.20;;;;;;;;;;20908673;28;20101;-68
2021/08/25 02:29:56;;;;;;;10.70;4.20;;;;;;;;;;20907687;28;20053;-67
2021/08/25 02:39:59;;;;;;;9.93;3.80;;;;;;;;;;20905597;28;20497;-65
2021/08/25 02:50:03;;;;;;;10.35;4.25;;;;;;;;;;20906564;28;20057;-68
2021/08/25 03:00:09;;;;;;;12.90;5.20;;;;;;;;;;20905788;28;20049;-66
2021/08/25 03:10:11;;;;;;;11.45;4.38;;;;;;;;;;20904388;28;20060;-67
2021/08/25 03:20:32;;;;;;;9.40;3.72;;;;;;;;;;20904628;28;20154;-65
2021/08/25 03:30:57;;;;;;;10.63;5.07;;;;;;;;;;20903796;28;20059;-64
2021/08/25 03:41:05;;;;;;;13.73;4.80;;;;;;;;;;20903008;28;20080;-64
2021/08/25 03:51:09;;;;;;;10.60;4.47;;;;;;;;;;20902437;28;20135;-64
2021/08/25 04:01:16;;;;;;;10.25;4.40;;;;;;;;;;20901895;28;20489;-65
2021/08/25 04:11:22;;;;;;;11.45;5.25;;;;;;;;;;20901603;28;20063;-64
2021/08/25 04:21:30;;;;;;;12.55;4.97;;;;;;;;;;20900956;28;20129;-65
2021/08/25 04:31:38;;;;;;;14.35;5.43;;;;;;;;;;20899935;28;20048;-64
2021/08/25 04:41:49;;;;;;;15.93;6.63;;;;;;;;;;20900730;28;20472;-64
2021/08/25 04:51:51;;;;;;;13.77;5.07;;;;;;;;;;20899335;28;20141;-64
2021/08/25 05:01:54;;;;;;;14.57;5.70;;;;;;;;;;20886017;28;20404;-64
2021/08/25 05:11:58;;;;;;;15.55;6.03;;;;;;;;;;20913592;28;20335;-67
2021/08/25 05:22:00;;;;;;;;;;;;;;;;;;20919753;28;20052;-64
2021/08/25 05:32:02;;;;;;;14.27;5.07;;;;;;;;;;20918079;28;19928;-63
2021/08/25 05:42:04;;;;;;;14.90;5.55;;;;;;;;;;20911472;28;20057;-65
2021/08/25 05:52:06;;;;;;;;;;;;;;;;;;20912067;28;20049;-65
2021/08/25 06:02:09;;;;;;;10.03;5.20;;;;;;;;;;20908834;28;19924;-64
2021/08/25 06:12:11;;;;;;;11.68;5.43;;;;;;;;;;20907617;28;20405;-64
2021/08/25 06:22:14;;;;;;;12.73;5.65;;;;;;;;;;20907571;28;20045;-63
2021/08/25 06:32:17;;;;;;;9.77;5.20;;;;;;;;;;20907327;28;20076;-64
2021/08/25 06:42:26;;;;;;;12.48;5.35;;;;;;;;;;20906536;28;20057;-64
2021/08/25 06:52:29;;;;;;;15.20;7.00;;;;;;;;;;20905949;28;20105;-63
2021/08/25 07:02:32;;;;;;;14.25;6.75;;;;;;;;;;20905181;28;20045;-65
2021/08/25 07:12:34;;;;;;;18.55;6.05;;;;;;;;;;20887419;28;20659;-65
2021/08/25 07:22:42;;;;;;;17.02;6.22;;;;;;;;;;20903721;28;20053;-64
2021/08/25 07:32:45;;;;;;;16.60;5.57;;;;;;;;;;20904758;28;20057;-64
2021/08/25 07:42:48;;;;;;;11.57;5.43;;;;;;;;;;20903572;28;20041;-66
2021/08/25 07:52:51;;;;;;;13.57;5.47;;;;;;;;;;20902730;28;20056;-68
2021/08/25 08:02:55;;;;;;;11.52;5.00;;;;;;;;;;20901713;28;20045;-65
2021/08/25 08:12:59;;;;;;;12.43;5.60;;;;;;;;;;20900783;28;20056;-64
2021/08/25 08:23:02;;;;;;;16.23;5.70;;;;;;;;;;20901080;28;20053;-66
2021/08/25 08:33:05;;;;;;;19.80;5.15;;;;;;;;;;20900218;28;20045;-65
2021/08/25 08:43:09;;;;;;;23.20;6.13;;;;;;;;;;20914167;28;20052;-64
2021/08/25 08:53:11;;;;;;;15.82;5.85;;;;;;;;;;20913358;28;20059;-64
2021/08/25 09:03:34;;;;;;;12.80;5.28;;;;;;;;;;20913649;28;20053;-65
2021/08/25 09:13:38;;;;;;;18.73;6.72;;;;;;;;;;20911818;28;20048;-65
2021/08/25 09:23:46;;;;;;;13.68;5.40;;;;;;;;;;20911648;28;20058;-66
2021/08/25 09:33:52;;;;;;;14.63;5.72;;;;;;;;;;20911758;28;20049;-67
2021/08/25 09:43:54;;;;;;;18.48;6.05;;;;;;;;;;20910709;28;20132;-65
2021/08/25 09:54:05;;;;;;;16.90;6.75;;;;;;;;;;20909181;28;20053;-64
2021/08/25 10:04:12;;;;;;;13.77;5.53;;;;;;;;;;20908503;28;20045;-64
2021/08/25 10:14:18;;;;;;;12.77;7.20;;;;;;;;;;20907569;28;20222;-64
2021/08/25 10:24:21;;;;;;;14.88;6.20;;;;;;;;;;20907896;28;20485;-64
2021/08/25 10:34:25;;;;;;;11.88;4.88;;;;;;;;;;20907130;28;20049;-64
2021/08/25 10:44:40;;;;;;;11.98;4.80;;;;;;;;;;20906127;28;20048;-66
2021/08/25 10:54:42;;;;;;;;;;;;;;;;;;20906858;28;20045;-65
2021/08/25 11:04:44;;;;;;;9.50;5.13;;;;;;;;;;20904167;28;20011;-68
2021/08/25 11:14:48;;;;;;;16.50;5.50;;;;;;;;;;20904775;28;20065;-68
2021/08/25 11:24:55;;;;;;;12.05;5.60;;;;;;;;;;20904426;28;20052;-67
2021/08/25 11:34:57;;;;;;;10.70;5.82;;;;;;;;;;20903200;28;20045;-68
2021/08/25 11:45:01;;;;;;;8.15;5.53;;;;;;;;;;20903794;28;20048;-64
2021/08/25 11:55:04;;;;;;;11.07;5.40;;;;;;;;;;20902165;28;20052;-68
2021/08/25 12:05:20;;;;;;;12.90;5.25;;;;;;;;;;20901318;28;20446;-68
2021/08/25 12:15:43;;;;;;;17.08;5.40;;;;;;;;;;20900867;28;20053;-68
2021/08/25 12:25:47;;;;;;;11.52;5.47;;;;;;;;;;20900768;28;20053;-67
2021/08/25 12:35:51;;;;;;;13.23;5.15;;;;;;;;;;20910203;28;20041;-69
2021/08/25 12:45:53;;;;;;;9.05;4.93;;;;;;;;;;20910757;28;20056;-70
2021/08/25 12:55:55;;;;;;;10.65;4.80;;;;;;;;;;20899850;28;20101;-62
2021/08/25 13:05:58;;;;;;;13.45;5.68;;;;;;;;;;20898449;28;20049;-65
2021/08/25 13:16:01;;;;;;;8.80;4.85;;;;;;;;;;20898657;28;20049;-63
2021/08/25 13:26:04;;;;;;;11.32;5.00;;;;;;;;;;20906341;28;20052;-64
2021/08/25 13:36:08;;;;;;;17.27;9.20;;;;;;;;;;20912643;28;20057;-65
2021/08/25 13:46:12;;;;;;;9.45;5.10;;;;;;;;;;20912300;28;20063;-65
2021/08/25 13:56:15;;;;;;;8.75;4.68;;;;;;;;;;20911182;28;20073;-66
2021/08/25 14:06:18;;;;;;;8.93;5.88;;;;;;;;;;20909314;28;20049;-65
2021/08/25 14:16:22;;;;;;;10.85;5.47;;;;;;;;;;20908689;28;20052;-67
2021/08/25 14:26:24;;;;;;;14.85;5.72;;;;;;;;;;20908223;28;20045;-67
2021/08/25 14:36:26;;;;;;;12.10;5.90;;;;;;;;;;20907357;28;20075;-66
2021/08/25 14:46:28;;;;;;;11.70;6.55;;;;;;;;;;20906998;28;20070;-64
2021/08/25 14:56:30;;;;;;;9.93;6.40;;;;;;;;;;20906435;28;20053;-64
2021/08/25 15:06:37;;;;;;;16.98;7.18;;;;;;;;;;20905036;28;20182;-64
2021/08/25 15:16:39;;;;;;;11.70;6.88;;;;;;;;;;20905171;28;20435;-64
2021/08/25 15:26:41;;;;;;;9.30;6.70;;;;;;;;;;20904218;28;20049;-64
2021/08/25 15:36:43;;;;;;;12.15;7.10;;;;;;;;;;20903578;28;20059;-64
2021/08/25 15:46:50;;;;;;;9.90;7.07;;;;;;;;;;20885372;28;20060;-64
2021/08/25 15:56:52;;;;;;;8.73;6.95;;;;;;;;;;20900730;28;20052;-63
2021/08/25 16:06:54;;;;;;;11.93;7.25;;;;;;;;;;20899656;28;20045;-68
2021/08/25 16:16:56;;;;;;;10.73;7.07;;;;;;;;;;20899700;28;20076;-64
2021/08/25 16:27:01;;;;;;;9.48;6.50;;;;;;;;;;20899179;28;20049;-66
2021/08/25 16:37:04;;;;;;;10.13;7.13;;;;;;;;;;20898279;28;20057;-67
2021/08/25 16:47:06;;;;;;;13.60;7.18;;;;;;;;;;20897560;28;20048;-64
2021/08/25 16:57:08;;;;;;;11.23;6.18;;;;;;;;;;20900382;28;20389;-67
2021/08/25 17:07:12;;;;;;;9.88;5.32;;;;;;;;;;20910717;28;20084;-64
2021/08/25 17:17:15;;;;;;;9.02;5.63;;;;;;;;;;20911846;28;20071;-65
2021/08/25 17:27:17;;;;;;;11.13;5.97;;;;;;;;;;20911264;28;20045;-66
2021/08/25 17:37:19;;;;;;;11.00;7.55;;;;;;;;;;20891540;28;20488;-66
2021/08/25 17:47:23;;;;;;;13.48;7.47;;;;;;;;;;20908770;28;20045;-65
2021/08/25 17:57:25;;;;;;;12.88;9.00;;;;;;;;;;20908026;28;20409;-64
2021/08/25 18:07:27;;;;;;;14.10;9.77;;;;;;;;;;20906930;28;20057;-63
2021/08/25 18:17:30;;;;;;;20.65;12.43;;;;;;;;;;20908651;28;20049;-67
2021/08/25 18:27:32;;;;;;;17.05;10.35;;;;;;;;;;20908332;28;20541;-65
2021/08/25 18:37:34;;;;;;;20.98;13.88;;;;;;;;;;20907610;28;20080;-67
2021/08/25 18:47:36;;;;;;;11.68;9.10;;;;;;;;;;20907034;28;20098;-65
2021/08/25 18:57:37;;;;;;;14.63;8.30;;;;;;;;;;20906553;28;20056;-67
2021/08/25 19:07:39;;;;;;;9.27;5.72;;;;;;;;;;20905118;28;20416;-64
2021/08/25 19:17:40;;;;;;;13.57;7.65;;;;;;;;;;20903854;28;20049;-65
2021/08/25 19:27:41;;;;;;;13.48;5.80;;;;;;;;;;20887236;28;20572;-63
2021/08/25 19:37:42;;;;;;;13.35;6.68;;;;;;;;;;20903111;28;20044;-63
2021/08/25 19:47:45;;;;;;;11.95;7.00;;;;;;;;;;20885206;28;20056;-62
2021/08/25 19:57:47;;;;;;;10.98;5.78;;;;;;;;;;20902333;28;20080;-64
2021/08/25 20:07:49;;;;;;;9.30;5.65;;;;;;;;;;20901497;28;20049;-63
2021/08/25 20:17:51;;;;;;;10.93;5.90;;;;;;;;;;20901327;28;20052;-63
2021/08/25 20:27:53;;;;;;;8.73;5.53;;;;;;;;;;20901283;28;20045;-62
2021/08/25 20:37:55;;;;;;;12.00;6.50;;;;;;;;;;20896745;28;20141;-63
2021/08/25 20:47:57;;;;;;;11.50;6.05;;;;;;;;;;20914546;28;20128;-63
2021/08/25 20:57:59;;;;;;;11.18;6.30;;;;;;;;;;20913373;28;20049;-64
2021/08/25 21:08:01;;;;;;;10.02;6.70;;;;;;;;;;20913118;28;20518;-65
2021/08/25 21:18:03;;;;;;;9.65;6.32;;;;;;;;;;20913033;28;20379;-64
2021/08/25 21:28:05;;;;;;;13.07;7.50;;;;;;;;;;20912820;28;20057;-63
2021/08/25 21:38:07;;;;;;;14.13;6.95;;;;;;;;;;20911406;28;20057;-65
2021/08/25 21:48:10;;;;;;;12.35;7.38;;;;;;;;;;20909340;28;20132;-62
2021/08/25 21:58:13;;;;;;;13.50;7.47;;;;;;;;;;20911159;28;20057;-64
2021/08/25 22:08:15;;;;;;;9.20;6.05;;;;;;;;;;20908308;28;20088;-69
2021/08/25 22:18:18;;;;;;;11.55;6.30;;;;;;;;;;20909089;28;20057;-69
2021/08/25 22:28:19;;;;;;;10.73;6.40;;;;;;;;;;20907893;28;20076;-68
2021/08/25 22:38:22;;;;;;;11.05;6.05;;;;;;;;;;20908164;28;20057;-64
2021/08/25 22:48:24;;;;;;;10.60;6.80;;;;;;;;;;20906928;28;20045;-63
2021/08/25 22:58:26;;;;;;;14.45;8.55;;;;;;;;;;20906621;28;20143;-65
2021/08/25 23:08:27;;;;;;;13.27;6.70;;;;;;;;;;20905390;28;20390;-63
2021/08/25 23:18:29;;;;;;;13.43;6.82;;;;;;;;;;20904952;28;20136;-62
2021/08/25 23:28:31;;;;;;;14.73;7.50;;;;;;;;;;20904441;28;20045;-62
2021/08/25 23:38:34;;;;;;;12.88;7.22;;;;;;;;;;20903797;28;20397;-63
2021/08/25 23:48:36;;;;;;;12.23;7.82;;;;;;;;;;20903350;28;20057;-63
2021/08/25 23:58:38;;;;;;;10.85;6.68;;;;;;;;;;20902637;28;20569;-63
